sensor_id;sensor_type;location;lat;lon;timestamp;pressure;altitude;pressure_sealevel;temperature;humidity
28797;BME280;24974;54.444;18.560;2023-07-31T00:00:11;100487.03;;;18.87;72.78
28797;BME280;24974;54.444;18.560;2023-07-31T00:02:42;100491.72;;;19.28;71.56
28797;BME280;24974;54.444;18.560;2023-07-31T00:05:13;100478.97;;;19.54;71.13
28797;BME280;24974;54.444;18.560;2023-07-31T00:07:44;100467.75;;;19.73;70.41
28797;BME280;24974;54.444;18.560;2023-07-31T00:10:15;100464.97;;;19.73;70.47
28797;BME280;24974;54.444;18.560;2023-07-31T00:12:46;100474.34;;;19.62;71.06
28797;BME280;24974;54.444;18.560;2023-07-31T00:15:17;100471.06;;;19.82;69.96
28797;BME280;24974;54.444;18.560;2023-07-31T00:17:47;100454.88;;;19.16;71.93
28797;BME280;24974;54.444;18.560;2023-07-31T00:20:18;100453.22;;;19.61;70.68
28797;BME280;24974;54.444;18.560;2023-07-31T00:22:49;100450.06;;;19.62;70.17
28797;BME280;24974;54.444;18.560;2023-07-31T00:25:20;100441.69;;;19.62;70.38
28797;BME280;24974;54.444;18.560;2023-07-31T00:27:51;100438.13;;;19.92;70.03
28797;BME280;24974;54.444;18.560;2023-07-31T00:30:22;100438.38;;;19.26;71.03
28797;BME280;24974;54.444;18.560;2023-07-31T00:32:53;100436.53;;;19.11;72.02
28797;BME280;24974;54.444;18.560;2023-07-31T00:35:24;100440.50;;;18.87;72.31
28797;BME280;24974;54.444;18.560;2023-07-31T00:37:58;100430.09;;;18.84;72.91
28797;BME280;24974;54.444;18.560;2023-07-31T00:40:30;100435.97;;;19.02;71.80
28797;BME280;24974;54.444;18.560;2023-07-31T00:43:04;100433.47;;;19.20;71.28
28797;BME280;24974;54.444;18.560;2023-07-31T00:45:36;100435.47;;;18.96;71.57
28797;BME280;24974;54.444;18.560;2023-07-31T00:48:07;100420.25;;;18.90;71.53
28797;BME280;24974;54.444;18.560;2023-07-31T00:50:38;100418.16;;;18.41;72.67
28797;BME280;24974;54.444;18.560;2023-07-31T00:53:10;100418.94;;;18.84;71.77
28797;BME280;24974;54.444;18.560;2023-07-31T00:55:41;100421.84;;;18.45;72.41
28797;BME280;24974;54.444;18.560;2023-07-31T00:58:13;100421.84;;;18.45;72.56
28797;BME280;24974;54.444;18.560;2023-07-31T01:00:43;100422.31;;;18.51;72.51
28797;BME280;24974;54.444;18.560;2023-07-31T01:03:14;100426.59;;;18.45;73.05
28797;BME280;24974;54.444;18.560;2023-07-31T01:08:54;100406.91;;;18.34;73.36
28797;BME280;24974;54.444;18.560;2023-07-31T01:11:30;100406.53;;;18.78;72.97
28797;BME280;24974;54.444;18.560;2023-07-31T01:14:01;100406.09;;;18.76;72.41
28797;BME280;24974;54.444;18.560;2023-07-31T01:16:32;100410.31;;;18.66;72.32
28797;BME280;24974;54.444;18.560;2023-07-31T01:19:04;100411.56;;;18.07;74.43
28797;BME280;24974;54.444;18.560;2023-07-31T01:24:20;100417.56;;;18.29;73.30
28797;BME280;24974;54.444;18.560;2023-07-31T01:26:58;100416.13;;;18.38;72.58
28797;BME280;24974;54.444;18.560;2023-07-31T01:32:22;100419.66;;;17.77;74.90
28797;BME280;24974;54.444;18.560;2023-07-31T01:34:53;100427.94;;;18.12;74.10
28797;BME280;24974;54.444;18.560;2023-07-31T01:37:33;100426.53;;;18.03;74.07
28797;BME280;24974;54.444;18.560;2023-07-31T01:40:05;100424.34;;;18.12;73.80
28797;BME280;24974;54.444;18.560;2023-07-31T01:42:37;100418.34;;;18.10;73.42
28797;BME280;24974;54.444;18.560;2023-07-31T01:45:08;100414.63;;;18.22;72.97
28797;BME280;24974;54.444;18.560;2023-07-31T01:47:40;100413.66;;;18.33;72.22
28797;BME280;24974;54.444;18.560;2023-07-31T01:50:11;100417.94;;;18.69;70.81
28797;BME280;24974;54.444;18.560;2023-07-31T01:52:42;100432.19;;;18.06;72.31
28797;BME280;24974;54.444;18.560;2023-07-31T01:55:13;100420.34;;;18.52;70.75
28797;BME280;24974;54.444;18.560;2023-07-31T01:57:44;100430.50;;;18.21;70.78
28797;BME280;24974;54.444;18.560;2023-07-31T02:00:14;100431.91;;;17.73;72.90
28797;BME280;24974;54.444;18.560;2023-07-31T02:02:45;100432.91;;;17.84;72.24
28797;BME280;24974;54.444;18.560;2023-07-31T02:05:16;100432.88;;;17.65;72.68
28797;BME280;24974;54.444;18.560;2023-07-31T02:07:47;100432.94;;;17.68;72.81
28797;BME280;24974;54.444;18.560;2023-07-31T02:10:18;100426.91;;;17.47;73.81
28797;BME280;24974;54.444;18.560;2023-07-31T02:12:49;100433.28;;;17.31;74.22
28797;BME280;24974;54.444;18.560;2023-07-31T02:15:20;100429.13;;;17.06;74.85
28797;BME280;24974;54.444;18.560;2023-07-31T02:17:51;100427.09;;;17.38;74.05
28797;BME280;24974;54.444;18.560;2023-07-31T02:20:22;100422.88;;;17.44;74.10
28797;BME280;24974;54.444;18.560;2023-07-31T02:22:53;100422.88;;;17.44;73.41
28797;BME280;24974;54.444;18.560;2023-07-31T02:25:24;100413.75;;;17.44;74.09
28797;BME280;24974;54.444;18.560;2023-07-31T02:27:55;100414.31;;;17.33;74.05
28797;BME280;24974;54.444;18.560;2023-07-31T02:30:26;100417.56;;;17.20;74.44
28797;BME280;24974;54.444;18.560;2023-07-31T02:32:56;100412.63;;;17.13;74.65
28797;BME280;24974;54.444;18.560;2023-07-31T02:35:27;100421.53;;;16.87;75.01
28797;BME280;24974;54.444;18.560;2023-07-31T02:37:58;100425.16;;;17.07;74.88
28797;BME280;24974;54.444;18.560;2023-07-31T02:40:29;100431.59;;;17.43;73.82
28797;BME280;24974;54.444;18.560;2023-07-31T02:43:00;100429.28;;;16.97;74.62
28797;BME280;24974;54.444;18.560;2023-07-31T02:45:31;100430.72;;;17.23;74.18
28797;BME280;24974;54.444;18.560;2023-07-31T02:48:02;100440.50;;;17.01;74.98
28797;BME280;24974;54.444;18.560;2023-07-31T02:50:33;100425.25;;;17.61;72.90
28797;BME280;24974;54.444;18.560;2023-07-31T02:53:04;100436.22;;;17.39;73.57
28797;BME280;24974;54.444;18.560;2023-07-31T02:55:34;100430.72;;;17.07;74.74
28797;BME280;24974;54.444;18.560;2023-07-31T02:58:05;100434.00;;;17.44;73.83
28797;BME280;24974;54.444;18.560;2023-07-31T03:00:42;100432.84;;;17.29;73.96
28797;BME280;24974;54.444;18.560;2023-07-31T03:03:12;100437.44;;;16.90;75.55
28797;BME280;24974;54.444;18.560;2023-07-31T03:05:43;100441.19;;;17.14;75.17
28797;BME280;24974;54.444;18.560;2023-07-31T03:08:14;100437.88;;;17.08;74.93
28797;BME280;24974;54.444;18.560;2023-07-31T03:10:45;100435.44;;;17.22;74.74
28797;BME280;24974;54.444;18.560;2023-07-31T03:13:16;100442.63;;;16.92;75.70
28797;BME280;24974;54.444;18.560;2023-07-31T03:15:47;100445.41;;;17.08;75.55
28797;BME280;24974;54.444;18.560;2023-07-31T03:18:17;100436.94;;;16.85;75.78
28797;BME280;24974;54.444;18.560;2023-07-31T03:20:48;100442.00;;;17.14;74.77
28797;BME280;24974;54.444;18.560;2023-07-31T03:23:20;100443.97;;;16.98;75.72
28797;BME280;24974;54.444;18.560;2023-07-31T03:25:58;100447.91;;;17.13;75.18
28797;BME280;24974;54.444;18.560;2023-07-31T03:28:32;100448.13;;;16.60;76.61
28797;BME280;24974;54.444;18.560;2023-07-31T03:31:03;100450.09;;;16.60;76.77
28797;BME280;24974;54.444;18.560;2023-07-31T03:33:34;100445.34;;;16.60;76.91
28797;BME280;24974;54.444;18.560;2023-07-31T03:36:05;100454.38;;;16.85;75.53
28797;BME280;24974;54.444;18.560;2023-07-31T03:38:36;100456.13;;;16.62;76.87
28797;BME280;24974;54.444;18.560;2023-07-31T03:41:07;100459.75;;;17.10;75.47
28797;BME280;24974;54.444;18.560;2023-07-31T03:43:38;100458.66;;;16.83;76.19
28797;BME280;24974;54.444;18.560;2023-07-31T03:46:09;100460.19;;;17.12;75.45
28797;BME280;24974;54.444;18.560;2023-07-31T03:48:39;100463.59;;;17.21;74.94
28797;BME280;24974;54.444;18.560;2023-07-31T03:51:10;100456.31;;;17.16;75.00
28797;BME280;24974;54.444;18.560;2023-07-31T03:53:41;100466.91;;;17.11;75.37
28797;BME280;24974;54.444;18.560;2023-07-31T03:56:12;100474.63;;;17.17;75.51
28797;BME280;24974;54.444;18.560;2023-07-31T03:58:43;100474.94;;;16.84;76.29
28797;BME280;24974;54.444;18.560;2023-07-31T04:01:13;100467.72;;;16.80;76.61
28797;BME280;24974;54.444;18.560;2023-07-31T04:03:44;100467.78;;;17.30;74.94
28797;BME280;24974;54.444;18.560;2023-07-31T04:06:15;100463.69;;;16.93;76.03
28797;BME280;24974;54.444;18.560;2023-07-31T04:08:48;100459.91;;;17.32;75.19
28797;BME280;24974;54.444;18.560;2023-07-31T04:11:19;100458.94;;;17.41;74.74
28797;BME280;24974;54.444;18.560;2023-07-31T04:13:50;100466.75;;;17.70;73.97
28797;BME280;24974;54.444;18.560;2023-07-31T04:16:21;100458.78;;;17.53;74.32
28797;BME280;24974;54.444;18.560;2023-07-31T04:18:51;100460.97;;;17.44;74.69
28797;BME280;24974;54.444;18.560;2023-07-31T04:21:23;100461.19;;;17.54;74.75
28797;BME280;24974;54.444;18.560;2023-07-31T04:23:53;100472.09;;;17.44;74.87
28797;BME280;24974;54.444;18.560;2023-07-31T04:26:26;100464.31;;;17.69;74.22
28797;BME280;24974;54.444;18.560;2023-07-31T04:28:57;100460.41;;;17.54;74.35
28797;BME280;24974;54.444;18.560;2023-07-31T04:31:28;100464.09;;;17.58;74.55
28797;BME280;24974;54.444;18.560;2023-07-31T04:33:59;100459.75;;;17.76;73.72
28797;BME280;24974;54.444;18.560;2023-07-31T04:36:30;100461.47;;;17.65;74.38
28797;BME280;24974;54.444;18.560;2023-07-31T04:39:01;100451.00;;;17.58;74.70
28797;BME280;24974;54.444;18.560;2023-07-31T04:41:31;100449.88;;;17.79;74.04
28797;BME280;24974;54.444;18.560;2023-07-31T04:44:02;100451.50;;;17.99;73.15
28797;BME280;24974;54.444;18.560;2023-07-31T04:46:36;100458.53;;;18.12;72.94
28797;BME280;24974;54.444;18.560;2023-07-31T04:49:08;100454.88;;;17.89;73.41
28797;BME280;24974;54.444;18.560;2023-07-31T04:51:38;100456.84;;;18.27;72.39
28797;BME280;24974;54.444;18.560;2023-07-31T04:54:09;100459.13;;;18.02;72.89
28797;BME280;24974;54.444;18.560;2023-07-31T04:56:40;100459.06;;;18.60;70.98
28797;BME280;24974;54.444;18.560;2023-07-31T04:59:11;100460.41;;;18.47;70.71
28797;BME280;24974;54.444;18.560;2023-07-31T05:01:42;100460.06;;;18.10;72.46
28797;BME280;24974;54.444;18.560;2023-07-31T05:04:14;100448.50;;;18.27;71.29
28797;BME280;24974;54.444;18.560;2023-07-31T05:06:45;100465.97;;;18.47;71.24
28797;BME280;24974;54.444;18.560;2023-07-31T05:09:16;100463.34;;;18.35;71.58
28797;BME280;24974;54.444;18.560;2023-07-31T05:11:47;100474.41;;;18.12;72.12
28797;BME280;24974;54.444;18.560;2023-07-31T05:14:17;100468.78;;;17.89;72.43
28797;BME280;24974;54.444;18.560;2023-07-31T05:16:48;100471.78;;;17.65;73.16
28797;BME280;24974;54.444;18.560;2023-07-31T05:19:19;100464.31;;;17.69;72.91
28797;BME280;24974;54.444;18.560;2023-07-31T05:21:50;100470.94;;;17.64;72.95
28797;BME280;24974;54.444;18.560;2023-07-31T05:24:21;100468.09;;;17.76;72.74
28797;BME280;24974;54.444;18.560;2023-07-31T05:26:52;100466.81;;;18.09;71.97
28797;BME280;24974;54.444;18.560;2023-07-31T05:29:22;100471.94;;;18.07;71.47
28797;BME280;24974;54.444;18.560;2023-07-31T05:31:53;100465.47;;;17.83;72.25
28797;BME280;24974;54.444;18.560;2023-07-31T05:34:24;100471.69;;;18.54;70.30
28797;BME280;24974;54.444;18.560;2023-07-31T05:36:55;100467.25;;;18.30;71.32
28797;BME280;24974;54.444;18.560;2023-07-31T05:39:25;100469.50;;;18.25;70.54
28797;BME280;24974;54.444;18.560;2023-07-31T05:41:56;100469.25;;;18.53;70.06
28797;BME280;24974;54.444;18.560;2023-07-31T05:44:27;100465.13;;;18.85;68.82
28797;BME280;24974;54.444;18.560;2023-07-31T05:46:58;100454.56;;;18.94;69.24
28797;BME280;24974;54.444;18.560;2023-07-31T05:49:28;100466.75;;;19.09;67.69
28797;BME280;24974;54.444;18.560;2023-07-31T05:51:59;100473.78;;;19.52;67.12
28797;BME280;24974;54.444;18.560;2023-07-31T05:54:31;100470.09;;;19.45;67.50
28797;BME280;24974;54.444;18.560;2023-07-31T05:57:03;100468.75;;;19.35;66.96
28797;BME280;24974;54.444;18.560;2023-07-31T05:59:33;100465.66;;;19.67;66.49
28797;BME280;24974;54.444;18.560;2023-07-31T06:02:05;100463.16;;;18.86;67.92
28797;BME280;24974;54.444;18.560;2023-07-31T06:04:36;100462.03;;;19.13;67.20
28797;BME280;24974;54.444;18.560;2023-07-31T06:07:07;100461.63;;;19.38;67.16
28797;BME280;24974;54.444;18.560;2023-07-31T06:09:38;100460.97;;;20.04;65.45
28797;BME280;24974;54.444;18.560;2023-07-31T06:12:09;100464.91;;;19.43;66.24
28797;BME280;24974;54.444;18.560;2023-07-31T06:14:40;100467.03;;;19.80;65.48
28797;BME280;24974;54.444;18.560;2023-07-31T06:17:10;100472.72;;;19.57;65.49
28797;BME280;24974;54.444;18.560;2023-07-31T06:19:41;100476.34;;;19.61;66.07
28797;BME280;24974;54.444;18.560;2023-07-31T06:22:12;100472.50;;;19.73;65.88
28797;BME280;24974;54.444;18.560;2023-07-31T06:24:43;100467.94;;;20.18;64.48
28797;BME280;24974;54.444;18.560;2023-07-31T06:27:15;100475.25;;;19.43;65.16
28797;BME280;24974;54.444;18.560;2023-07-31T06:29:46;100471.88;;;19.83;64.36
28797;BME280;24974;54.444;18.560;2023-07-31T06:32:17;100479.47;;;20.16;63.03
28797;BME280;24974;54.444;18.560;2023-07-31T06:34:48;100490.72;;;19.93;63.38
28797;BME280;24974;54.444;18.560;2023-07-31T06:37:19;100483.75;;;19.80;64.15
28797;BME280;24974;54.444;18.560;2023-07-31T06:39:49;100493.03;;;19.88;63.47
28797;BME280;24974;54.444;18.560;2023-07-31T06:42:21;100483.53;;;20.22;62.93
28797;BME280;24974;54.444;18.560;2023-07-31T06:44:52;100485.28;;;20.34;61.86
28797;BME280;24974;54.444;18.560;2023-07-31T06:47:22;100491.34;;;20.09;62.01
28797;BME280;24974;54.444;18.560;2023-07-31T06:49:53;100482.28;;;20.50;61.44
28797;BME280;24974;54.444;18.560;2023-07-31T06:52:24;100491.66;;;20.34;61.41
28797;BME280;24974;54.444;18.560;2023-07-31T06:55:03;100499.69;;;20.70;61.35
28797;BME280;24974;54.444;18.560;2023-07-31T06:57:34;100505.06;;;20.92;59.71
28797;BME280;24974;54.444;18.560;2023-07-31T07:00:06;100487.25;;;20.63;59.97
28797;BME280;24974;54.444;18.560;2023-07-31T07:02:37;100489.72;;;21.16;59.32
28797;BME280;24974;54.444;18.560;2023-07-31T07:05:08;100501.03;;;20.86;59.24
28797;BME280;24974;54.444;18.560;2023-07-31T07:07:40;100488.81;;;21.46;58.44
28797;BME280;24974;54.444;18.560;2023-07-31T07:10:11;100494.09;;;21.10;58.54
28797;BME280;24974;54.444;18.560;2023-07-31T07:12:42;100496.56;;;21.22;57.52
28797;BME280;24974;54.444;18.560;2023-07-31T07:15:13;100493.09;;;20.92;58.87
28797;BME280;24974;54.444;18.560;2023-07-31T07:17:43;100498.03;;;21.09;57.75
28797;BME280;24974;54.444;18.560;2023-07-31T07:20:14;100495.00;;;20.81;57.27
28797;BME280;24974;54.444;18.560;2023-07-31T07:22:45;100498.34;;;21.41;55.26
28797;BME280;24974;54.444;18.560;2023-07-31T07:25:16;100510.84;;;21.55;55.87
28797;BME280;24974;54.444;18.560;2023-07-31T07:27:47;100487.78;;;21.72;54.58
28797;BME280;24974;54.444;18.560;2023-07-31T07:30:18;100485.25;;;21.53;55.72
28797;BME280;24974;54.444;18.560;2023-07-31T07:32:50;100476.53;;;21.61;55.31
28797;BME280;24974;54.444;18.560;2023-07-31T07:35:21;100486.88;;;21.54;55.47
28797;BME280;24974;54.444;18.560;2023-07-31T07:37:52;100499.53;;;21.37;54.34
28797;BME280;24974;54.444;18.560;2023-07-31T07:40:24;100484.06;;;21.54;54.99
28797;BME280;24974;54.444;18.560;2023-07-31T07:42:55;100476.72;;;21.93;53.72
28797;BME280;24974;54.444;18.560;2023-07-31T07:45:25;100487.28;;;22.28;53.33
28797;BME280;24974;54.444;18.560;2023-07-31T07:47:56;100478.72;;;21.93;53.80
28797;BME280;24974;54.444;18.560;2023-07-31T07:50:28;100484.13;;;21.64;53.54
28797;BME280;24974;54.444;18.560;2023-07-31T07:52:59;100480.97;;;21.69;52.74
28797;BME280;24974;54.444;18.560;2023-07-31T07:55:29;100477.78;;;21.67;52.34
28797;BME280;24974;54.444;18.560;2023-07-31T07:58:00;100475.47;;;21.84;52.75
28797;BME280;24974;54.444;18.560;2023-07-31T08:00:31;100476.84;;;22.11;51.88
28797;BME280;24974;54.444;18.560;2023-07-31T08:03:02;100486.16;;;22.44;50.30
28797;BME280;24974;54.444;18.560;2023-07-31T08:05:33;100462.22;;;22.68;50.65
28797;BME280;24974;54.444;18.560;2023-07-31T08:08:04;100481.22;;;22.12;49.76
28797;BME280;24974;54.444;18.560;2023-07-31T08:10:35;100477.97;;;22.03;50.69
28797;BME280;24974;54.444;18.560;2023-07-31T08:13:05;100466.22;;;22.74;50.85
28797;BME280;24974;54.444;18.560;2023-07-31T08:15:36;100475.44;;;22.81;48.53
28797;BME280;24974;54.444;18.560;2023-07-31T08:18:07;100478.09;;;22.24;49.05
28797;BME280;24974;54.444;18.560;2023-07-31T08:20:37;100477.09;;;22.97;48.47
28797;BME280;24974;54.444;18.560;2023-07-31T08:23:08;100471.09;;;23.62;47.51
28797;BME280;24974;54.444;18.560;2023-07-31T08:25:39;100459.78;;;22.59;48.47
28797;BME280;24974;54.444;18.560;2023-07-31T08:28:10;100463.09;;;23.25;46.62
28797;BME280;24974;54.444;18.560;2023-07-31T08:30:41;100453.47;;;23.33;47.36
28797;BME280;24974;54.444;18.560;2023-07-31T08:33:12;100463.78;;;23.97;46.25
28797;BME280;24974;54.444;18.560;2023-07-31T08:35:43;100457.44;;;22.79;45.81
28797;BME280;24974;54.444;18.560;2023-07-31T08:38:14;100468.69;;;23.07;45.82
28797;BME280;24974;54.444;18.560;2023-07-31T08:40:44;100475.41;;;22.60;46.72
28797;BME280;24974;54.444;18.560;2023-07-31T08:43:15;100471.81;;;22.67;46.13
28797;BME280;24974;54.444;18.560;2023-07-31T08:45:45;100458.25;;;23.65;45.13
28797;BME280;24974;54.444;18.560;2023-07-31T08:48:17;100460.06;;;24.21;44.39
28797;BME280;24974;54.444;18.560;2023-07-31T08:50:50;100454.63;;;23.79;44.18
28797;BME280;24974;54.444;18.560;2023-07-31T08:53:20;100459.81;;;23.91;43.55
28797;BME280;24974;54.444;18.560;2023-07-31T08:55:52;100462.84;;;24.98;42.08
28797;BME280;24974;54.444;18.560;2023-07-31T08:58:23;100467.91;;;22.96;43.73
28797;BME280;24974;54.444;18.560;2023-07-31T09:00:54;100456.25;;;23.65;44.47
28797;BME280;24974;54.444;18.560;2023-07-31T09:03:26;100461.75;;;24.08;43.33
28797;BME280;24974;54.444;18.560;2023-07-31T09:05:56;100458.28;;;23.36;43.38
28797;BME280;24974;54.444;18.560;2023-07-31T09:08:30;100455.47;;;23.29;43.46
28797;BME280;24974;54.444;18.560;2023-07-31T09:11:01;100456.63;;;23.85;42.91
28797;BME280;24974;54.444;18.560;2023-07-31T09:13:35;100453.88;;;23.67;41.94
28797;BME280;24974;54.444;18.560;2023-07-31T09:16:08;100454.28;;;23.30;41.12
28797;BME280;24974;54.444;18.560;2023-07-31T09:18:52;100454.59;;;23.93;40.93
28797;BME280;24974;54.444;18.560;2023-07-31T09:21:24;100452.13;;;24.02;41.04
28797;BME280;24974;54.444;18.560;2023-07-31T09:23:56;100463.00;;;23.89;41.52
28797;BME280;24974;54.444;18.560;2023-07-31T09:26:33;100455.47;;;23.29;41.76
28797;BME280;24974;54.444;18.560;2023-07-31T09:29:05;100439.06;;;23.28;42.32
28797;BME280;24974;54.444;18.560;2023-07-31T09:34:09;100444.91;;;24.05;41.15
28797;BME280;24974;54.444;18.560;2023-07-31T09:36:45;100444.47;;;24.17;41.43
28797;BME280;24974;54.444;18.560;2023-07-31T09:39:16;100443.56;;;24.41;41.23
28797;BME280;24974;54.444;18.560;2023-07-31T09:41:53;100449.88;;;23.26;41.88
28797;BME280;24974;54.444;18.560;2023-07-31T09:49:54;100444.97;;;24.74;39.19
28797;BME280;24974;54.444;18.560;2023-07-31T09:52:25;100429.91;;;24.47;39.52
28797;BME280;24974;54.444;18.560;2023-07-31T09:54:56;100437.25;;;25.37;38.20
28797;BME280;24974;54.444;18.560;2023-07-31T09:57:27;100424.56;;;25.60;37.43
28797;BME280;24974;54.444;18.560;2023-07-31T09:59:58;100423.13;;;24.93;39.21
28797;BME280;24974;54.444;18.560;2023-07-31T10:02:28;100427.09;;;25.06;39.01
28797;BME280;24974;54.444;18.560;2023-07-31T10:05:02;100421.91;;;24.38;40.18
28797;BME280;24974;54.444;18.560;2023-07-31T10:07:37;100416.53;;;25.17;39.36
28797;BME280;24974;54.444;18.560;2023-07-31T10:10:08;100438.72;;;24.45;39.59
28797;BME280;24974;54.444;18.560;2023-07-31T10:12:40;100411.03;;;24.44;39.57
28797;BME280;24974;54.444;18.560;2023-07-31T10:15:11;100408.91;;;24.62;38.63
28797;BME280;24974;54.444;18.560;2023-07-31T10:17:42;100409.63;;;25.25;38.80
28797;BME280;24974;54.444;18.560;2023-07-31T10:20:13;100399.97;;;26.02;38.44
28797;BME280;24974;54.444;18.560;2023-07-31T10:22:44;100419.22;;;25.69;36.14
28797;BME280;24974;54.444;18.560;2023-07-31T10:25:18;100399.81;;;26.12;36.45
28797;BME280;24974;54.444;18.560;2023-07-31T10:27:50;100399.03;;;26.42;35.75
28797;BME280;24974;54.444;18.560;2023-07-31T10:30:22;100406.06;;;25.18;38.24
28797;BME280;24974;54.444;18.560;2023-07-31T10:32:54;100398.72;;;25.72;37.08
28797;BME280;24974;54.444;18.560;2023-07-31T10:35:25;100407.28;;;26.57;34.56
28797;BME280;24974;54.444;18.560;2023-07-31T10:37:56;100389.34;;;27.41;35.11
28797;BME280;24974;54.444;18.560;2023-07-31T10:40:39;100392.00;;;27.51;34.28
28797;BME280;24974;54.444;18.560;2023-07-31T10:43:10;100389.03;;;26.65;34.26
28797;BME280;24974;54.444;18.560;2023-07-31T10:45:53;100390.72;;;26.59;33.54
28797;BME280;24974;54.444;18.560;2023-07-31T10:48:24;100394.81;;;26.54;33.87
28797;BME280;24974;54.444;18.560;2023-07-31T10:50:55;100398.19;;;26.96;32.57
28797;BME280;24974;54.444;18.560;2023-07-31T10:53:29;100380.38;;;28.25;32.21
28797;BME280;24974;54.444;18.560;2023-07-31T10:56:00;100379.75;;;28.18;32.21
28797;BME280;24974;54.444;18.560;2023-07-31T10:58:32;100389.38;;;28.20;30.77
28797;BME280;24974;54.444;18.560;2023-07-31T11:01:03;100375.31;;;28.17;31.59
28797;BME280;24974;54.444;18.560;2023-07-31T11:03:44;100391.88;;;26.61;33.28
28797;BME280;24974;54.444;18.560;2023-07-31T11:06:16;100380.41;;;25.91;34.53
28797;BME280;24974;54.444;18.560;2023-07-31T11:08:47;100375.13;;;25.59;35.97
28797;BME280;24974;54.444;18.560;2023-07-31T11:11:19;100385.63;;;26.19;35.08
28797;BME280;24974;54.444;18.560;2023-07-31T11:13:50;100388.41;;;25.17;36.25
28797;BME280;24974;54.444;18.560;2023-07-31T11:16:23;100382.19;;;24.36;38.02
28797;BME280;24974;54.444;18.560;2023-07-31T11:18:54;100378.97;;;24.93;37.98
28797;BME280;24974;54.444;18.560;2023-07-31T11:21:26;100370.19;;;24.84;37.96
28797;BME280;24974;54.444;18.560;2023-07-31T11:23:57;100376.50;;;25.44;37.27
28797;BME280;24974;54.444;18.560;2023-07-31T11:26:27;100377.25;;;25.48;38.01
28797;BME280;24974;54.444;18.560;2023-07-31T11:28:58;100384.47;;;25.11;38.88
28797;BME280;24974;54.444;18.560;2023-07-31T11:31:29;100368.72;;;25.55;38.40
28797;BME280;24974;54.444;18.560;2023-07-31T11:34:06;100374.41;;;25.51;38.58
28797;BME280;24974;54.444;18.560;2023-07-31T11:36:36;100368.13;;;26.86;36.88
28797;BME280;24974;54.444;18.560;2023-07-31T11:39:07;100363.88;;;26.51;37.00
28797;BME280;24974;54.444;18.560;2023-07-31T11:41:40;100360.34;;;25.85;38.29
28797;BME280;24974;54.444;18.560;2023-07-31T11:44:11;100380.22;;;24.89;40.07
28797;BME280;24974;54.444;18.560;2023-07-31T11:46:41;100371.19;;;24.63;40.22
28797;BME280;24974;54.444;18.560;2023-07-31T11:49:14;100354.44;;;24.97;40.11
28797;BME280;24974;54.444;18.560;2023-07-31T11:51:45;100368.78;;;25.14;39.51
28797;BME280;24974;54.444;18.560;2023-07-31T11:54:15;100354.31;;;26.44;37.86
28797;BME280;24974;54.444;18.560;2023-07-31T11:56:46;100346.38;;;26.36;37.47
28797;BME280;24974;54.444;18.560;2023-07-31T11:59:17;100351.69;;;27.08;36.32
28797;BME280;24974;54.444;18.560;2023-07-31T12:01:48;100352.19;;;26.75;36.50
28797;BME280;24974;54.444;18.560;2023-07-31T12:04:23;100344.09;;;27.04;35.93
28797;BME280;24974;54.444;18.560;2023-07-31T12:06:55;100368.34;;;27.85;34.65
28797;BME280;24974;54.444;18.560;2023-07-31T12:09:26;100346.56;;;27.22;35.79
28797;BME280;24974;54.444;18.560;2023-07-31T12:11:56;100371.25;;;27.38;35.59
28797;BME280;24974;54.444;18.560;2023-07-31T12:14:27;100368.22;;;25.29;38.72
28797;BME280;24974;54.444;18.560;2023-07-31T12:17:05;100368.34;;;25.15;39.25
28797;BME280;24974;54.444;18.560;2023-07-31T12:19:37;100359.06;;;25.18;39.49
28797;BME280;24974;54.444;18.560;2023-07-31T12:22:11;100370.59;;;24.31;41.19
28797;BME280;24974;54.444;18.560;2023-07-31T12:24:43;100353.44;;;24.14;41.05
28797;BME280;24974;54.444;18.560;2023-07-31T12:27:16;100354.81;;;24.51;41.00
28797;BME280;24974;54.444;18.560;2023-07-31T12:29:48;100350.06;;;23.53;42.91
28797;BME280;24974;54.444;18.560;2023-07-31T12:32:20;100348.72;;;24.63;41.05
28797;BME280;24974;54.444;18.560;2023-07-31T12:34:51;100351.47;;;25.87;39.35
28797;BME280;24974;54.444;18.560;2023-07-31T12:37:21;100345.53;;;27.13;37.18
28797;BME280;24974;54.444;18.560;2023-07-31T12:39:52;100344.19;;;27.21;36.97
28797;BME280;24974;54.444;18.560;2023-07-31T12:42:23;100344.69;;;27.16;37.01
28797;BME280;24974;54.444;18.560;2023-07-31T12:44:53;100335.63;;;27.01;37.62
28797;BME280;24974;54.444;18.560;2023-07-31T12:47:24;100339.38;;;26.71;37.40
28797;BME280;24974;54.444;18.560;2023-07-31T12:49:54;100332.97;;;26.47;38.58
28797;BME280;24974;54.444;18.560;2023-07-31T12:52:25;100333.03;;;26.67;37.82
28797;BME280;24974;54.444;18.560;2023-07-31T12:54:55;100322.16;;;26.15;38.58
28797;BME280;24974;54.444;18.560;2023-07-31T12:57:26;100322.09;;;25.88;40.04
28797;BME280;24974;54.444;18.560;2023-07-31T12:59:56;100345.22;;;24.48;42.74
28797;BME280;24974;54.444;18.560;2023-07-31T13:02:27;100336.47;;;24.88;42.89
28797;BME280;24974;54.444;18.560;2023-07-31T13:04:58;100320.56;;;24.67;43.00
28797;BME280;24974;54.444;18.560;2023-07-31T13:07:29;100328.72;;;23.84;45.14
28797;BME280;24974;54.444;18.560;2023-07-31T13:09:59;100331.09;;;23.89;45.62
28797;BME280;24974;54.444;18.560;2023-07-31T13:12:30;100329.63;;;24.40;44.99
28797;BME280;24974;54.444;18.560;2023-07-31T13:15:00;100322.03;;;25.27;42.75
28797;BME280;24974;54.444;18.560;2023-07-31T13:17:31;100325.31;;;25.22;42.95